Time;durP1;ratioP1;P1;durP2;ratioP2;P2;SDS_P1;SDS_P2;PMS_P1;PMS_P2;Temp;Humidity;BMP_temperature;BMP_pressure;BME280_temperature;BME280_humidity;BME280_pressure;Samples;Min_cycle;Max_cycle;Signal;HPM_P1;HPM_P2
2022/03/07 00:01:41;;;;;;;;;;;0.40;64.10;;;;;;5083773;28;19975;-70
2022/03/07 00:04:07;;;;;;;;;;;0.40;63.50;;;;;;5086081;28;19931;-69
2022/03/07 00:06:32;;;;;;;;;;;0.40;63.90;;;;;;5086203;28;19939;-69
2022/03/07 00:08:58;;;;;;;;;;;0.40;63.70;;;;;;5084358;28;19913;-69
2022/03/07 00:11:24;;;;;;;;;;;0.30;63.30;;;;;;5082698;28;19994;-69
2022/03/07 00:13:50;;;;;;;;;;;0.40;62.90;;;;;;5065543;28;20214;-69
2022/03/07 00:16:16;;;;;;;;;;;0.40;62.70;;;;;;5083464;28;19944;-69
2022/03/07 00:18:41;;;;;;;;;;;0.40;62.20;;;;;;5082214;28;19976;-69
2022/03/07 00:21:07;;;;;;;;;;;0.30;62.50;;;;;;5081852;28;20123;-69
2022/03/07 00:23:33;;;;;;;;;;;0.30;61.80;;;;;;5082787;28;20184;-70
2022/03/07 00:25:58;;;;;;;;;;;0.30;62.40;;;;;;5083037;28;19923;-70
2022/03/07 00:28:24;;;;;;;;;;;0.30;62.10;;;;;;5098795;28;20110;-69
2022/03/07 00:30:50;;;;;;;;;;;0.40;62.30;;;;;;5082844;28;19990;-70
2022/03/07 00:33:18;;;;;;;;;;;0.30;62.60;;;;;;5065002;28;19919;-69
2022/03/07 00:35:44;;;;;;;;;;;0.30;62.20;;;;;;5082012;28;19968;-69
2022/03/07 00:38:10;;;;;;;;;;;0.20;62.80;;;;;;5081681;28;20103;-69
2022/03/07 00:40:36;;;;;;;;;;;0.10;63.30;;;;;;5081583;28;19909;-69
2022/03/07 00:43:05;;;;;;;;;;;0.10;63.30;;;;;;5081815;28;20115;-69
2022/03/07 00:45:31;;;;;;;;;;;0.00;64.00;;;;;;5083083;28;19912;-69
2022/03/07 00:47:56;;;;;;;;;;;0.00;64.40;;;;;;5082846;28;20261;-69
2022/03/07 00:50:22;;;;;;;;;;;0.00;65.20;;;;;;5082321;28;19920;-69
2022/03/07 00:52:48;;;;;;;;;;;-0.10;65.60;;;;;;5081053;28;19919;-69
2022/03/07 00:55:13;;;;;;;;;;;-0.20;66.30;;;;;;5082863;28;19915;-69
2022/03/07 00:57:39;;;;;;;;;;;-0.10;66.60;;;;;;5082674;28;20256;-69
2022/03/07 01:00:06;;;;;;;;;;;-0.10;66.40;;;;;;5082871;28;19908;-69
2022/03/07 01:02:32;;;;;;;;;;;0.00;66.70;;;;;;5064733;28;19908;-69
2022/03/07 01:04:59;;;;;;;;;;;0.00;66.70;;;;;;5064805;28;19954;-69
2022/03/07 01:07:24;;;;;;;;;;;-0.10;66.80;;;;;;5081611;28;19913;-69
2022/03/07 01:09:50;;;;;;;;;;;0.00;67.40;;;;;;5082442;28;19947;-69
2022/03/07 01:12:16;;;;;;;;;;;0.00;67.60;;;;;;5080966;28;19919;-69
2022/03/07 01:14:41;;;;;;;;;;;-0.10;67.90;;;;;;5086451;28;20037;-69
2022/03/07 01:17:07;;;;;;;;;;;-0.10;68.00;;;;;;5086500;28;19915;-70
2022/03/07 01:19:33;;;;;;;;;;;-0.20;68.30;;;;;;5085371;28;19909;-70
2022/03/07 01:21:58;;;;;;;;;;;-0.20;69.10;;;;;;5086056;28;20115;-70
2022/03/07 01:24:24;;;;;;;;;;;-0.20;69.40;;;;;;5121635;22;20242;-67
2022/03/07 01:26:50;;;;;;;;;;;-0.30;70.00;;;;;;5085320;28;19973;-67
2022/03/07 01:29:16;;;;;;;;;;;-0.30;70.20;;;;;;5085260;28;19951;-67
2022/03/07 01:31:41;;;;;;;;;;;-0.30;70.30;;;;;;5085162;28;20351;-67
2022/03/07 01:34:07;;;;;;;;;;;-0.30;70.30;;;;;;5085187;28;19913;-67
2022/03/07 01:36:33;;;;;;;;;;;-0.30;70.90;;;;;;5093939;28;19912;-67
2022/03/07 01:38:59;;;;;;;;;;;-0.30;69.90;;;;;;5084748;28;19980;-67
2022/03/07 01:41:25;;;;;;;;;;;-0.30;70.50;;;;;;5084647;28;20132;-67
2022/03/07 01:43:50;;;;;;;;;;;-0.30;70.40;;;;;;5084908;28;19939;-67
2022/03/07 01:46:16;;;;;;;;;;;-0.30;69.90;;;;;;5086921;28;19912;-67
2022/03/07 01:48:42;;;;;;;;;;;-0.30;70.00;;;;;;5084932;28;19908;-67
2022/03/07 01:51:07;;;;;;;;;;;-0.30;70.50;;;;;;5084475;28;19916;-66
2022/03/07 01:53:33;;;;;;;;;;;-0.30;70.90;;;;;;5083241;28;19923;-66
2022/03/07 01:55:59;;;;;;;;;;;-0.30;70.90;;;;;;5084522;28;19930;-66
2022/03/07 01:58:24;;;;;;;;;;;-0.30;70.80;;;;;;5084734;28;19940;-67
2022/03/07 02:00:50;;;;;;;;;;;-0.30;70.80;;;;;;5084561;28;20199;-67
2022/03/07 02:03:16;;;;;;;;;;;-0.40;71.10;;;;;;5084585;28;20248;-66
2022/03/07 02:05:41;;;;;;;;;;;-0.40;71.40;;;;;;5084719;28;20030;-66
2022/03/07 02:08:07;;;;;;;;;;;-0.40;71.30;;;;;;5084301;28;19943;-66
2022/03/07 02:10:33;;;;;;;;;;;-0.50;71.90;;;;;;5084332;28;19927;-66
2022/03/07 02:12:59;;;;;;;;;;;-0.40;72.90;;;;;;5084167;28;19943;-66
2022/03/07 02:15:24;;;;;;;;;;;-0.50;71.90;;;;;;5084512;28;19920;-66
2022/03/07 02:17:50;;;;;;;;;;;-0.50;72.50;;;;;;5084463;28;19983;-68
2022/03/07 02:20:16;;;;;;;;;;;-0.50;72.30;;;;;;5084357;28;19909;-68
2022/03/07 02:22:42;;;;;;;;;;;-0.40;72.30;;;;;;5084072;28;20270;-68
2022/03/07 02:25:08;;;;;;;;;;;-0.50;72.70;;;;;;5065428;28;19931;-68
2022/03/07 02:27:33;;;;;;;;;;;-0.50;72.70;;;;;;5084544;28;19909;-68
2022/03/07 02:30:05;;;;;;;;;;;-0.50;72.50;;;;;;5089984;28;19922;-68
2022/03/07 02:32:31;;;;;;;;;;;-0.50;72.60;;;;;;5067428;28;20926;-68
2022/03/07 02:34:57;;;;;;;;;;;-0.60;73.20;;;;;;5083041;28;19968;-68
2022/03/07 02:37:22;;;;;;;;;;;-0.50;73.30;;;;;;5084266;28;20253;-68
2022/03/07 02:39:48;;;;;;;;;;;-0.50;73.40;;;;;;5083832;28;19908;-68
2022/03/07 02:42:14;;;;;;;;;;;-0.50;73.40;;;;;;5083868;28;20246;-68
2022/03/07 02:44:39;;;;;;;;;;;-0.50;73.40;;;;;;5083953;28;19908;-68
2022/03/07 02:47:05;;;;;;;;;;;-0.50;73.80;;;;;;5084049;28;19909;-68
2022/03/07 02:49:31;;;;;;;;;;;-0.50;73.60;;;;;;5083975;28;19915;-67
2022/03/07 02:51:57;;;;;;;;;;;-0.40;73.50;;;;;;5083712;28;19909;-66
2022/03/07 02:54:22;;;;;;;;;;;-0.50;73.70;;;;;;5083500;28;19946;-66
2022/03/07 02:56:48;;;;;;;;;;;-0.40;73.50;;;;;;5083856;28;19908;-66
2022/03/07 02:59:14;;;;;;;;;;;-0.50;73.90;;;;;;5082664;28;19974;-66
2022/03/07 03:01:40;;;;;;;;;;;-0.40;73.70;;;;;;5083594;28;19908;-66
2022/03/07 03:04:06;;;;;;;;;;;-0.40;73.80;;;;;;5083774;28;19930;-67
2022/03/07 03:06:31;;;;;;;;;;;-0.40;73.30;;;;;;5083654;28;19975;-66
2022/03/07 03:08:57;;;;;;;;;;;-0.40;73.20;;;;;;5083356;28;20060;-67
2022/03/07 03:11:23;;;;;;;;;;;-0.40;72.90;;;;;;5083212;28;19908;-67
2022/03/07 03:13:48;;;;;;;;;;;-0.40;71.90;;;;;;5083511;28;19926;-67
2022/03/07 03:16:14;;;;;;;;;;;-0.30;72.00;;;;;;5083274;28;19919;-67
2022/03/07 03:18:40;;;;;;;;;;;-0.40;72.40;;;;;;5083215;28;19908;-67
2022/03/07 03:21:05;;;;;;;;;;;-0.40;71.00;;;;;;5082894;28;19939;-67
2022/03/07 03:23:31;;;;;;;;;;;-0.40;70.90;;;;;;5082538;28;19912;-67
2022/03/07 03:25:57;;;;;;;;;;;-0.40;70.90;;;;;;5082964;28;19908;-67
2022/03/07 03:28:23;;;;;;;;;;;-0.40;69.60;;;;;;5082923;28;20196;-68
2022/03/07 03:30:51;;;;;;;;;;;-0.40;69.10;;;;;;5082714;28;19909;-67
2022/03/07 03:33:16;;;;;;;;;;;-0.60;67.60;;;;;;5082750;28;19928;-67
2022/03/07 03:35:42;;;;;;;;;;;-0.60;68.40;;;;;;5082755;28;20053;-68
2022/03/07 03:38:08;;;;;;;;;;;-0.70;69.20;;;;;;5081915;28;19909;-67
2022/03/07 03:40:35;;;;;;;;;;;-0.70;68.50;;;;;;5082826;28;19909;-68
2022/03/07 03:43:00;;;;;;;;;;;-0.60;67.40;;;;;;5082814;28;19915;-68
2022/03/07 03:45:26;;;;;;;;;;;-0.60;67.40;;;;;;5082875;28;20095;-67
2022/03/07 03:47:52;;;;;;;;;;;-0.60;66.70;;;;;;5082697;28;20073;-67
2022/03/07 03:50:17;;;;;;;;;;;-0.60;67.40;;;;;;5082661;28;20004;-68
2022/03/07 03:52:43;;;;;;;;;;;-0.70;66.30;;;;;;5080795;28;20208;-67
2022/03/07 03:55:10;;;;;;;;;;;-0.70;66.00;;;;;;5082266;28;19913;-67
2022/03/07 03:57:39;;;;;;;;;;;-0.70;66.30;;;;;;5082422;28;19912;-67
2022/03/07 04:00:07;;;;;;;;;;;-0.60;66.50;;;;;;5082540;28;20222;-67
2022/03/07 04:02:32;;;;;;;;;;;-0.70;66.30;;;;;;5080885;28;20134;-67
2022/03/07 04:04:58;;;;;;;;;;;-0.70;66.80;;;;;;5082295;28;19908;-67
2022/03/07 04:07:24;;;;;;;;;;;-0.70;66.60;;;;;;5082334;28;19908;-67
2022/03/07 04:09:50;;;;;;;;;;;-0.60;65.60;;;;;;5082085;28;19923;-67
2022/03/07 04:12:16;;;;;;;;;;;-0.70;65.20;;;;;;5080949;28;19912;-67
2022/03/07 04:14:41;;;;;;;;;;;-0.70;66.00;;;;;;5082161;28;19912;-67
2022/03/07 04:17:07;;;;;;;;;;;-0.80;66.30;;;;;;5082158;28;19908;-67
2022/03/07 04:19:32;;;;;;;;;;;-0.80;66.50;;;;;;5080977;28;19908;-68
2022/03/07 04:21:58;;;;;;;;;;;-0.70;65.40;;;;;;5081703;28;20200;-66
2022/03/07 04:24:24;;;;;;;;;;;-0.80;65.00;;;;;;5081845;28;20203;-66
2022/03/07 04:26:50;;;;;;;;;;;-0.80;64.40;;;;;;5080701;28;19990;-65
2022/03/07 04:29:15;;;;;;;;;;;-0.90;65.30;;;;;;5082053;28;20159;-65
2022/03/07 04:31:42;;;;;;;;;;;-1.00;65.20;;;;;;5081707;28;19908;-65
2022/03/07 04:34:08;;;;;;;;;;;-1.00;65.20;;;;;;5081758;28;19912;-65
2022/03/07 04:36:35;;;;;;;;;;;-1.10;65.70;;;;;;5082050;28;19915;-68
2022/03/07 04:39:01;;;;;;;;;;;-1.10;65.70;;;;;;5081019;28;20231;-69
2022/03/07 04:41:27;;;;;;;;;;;-1.10;66.20;;;;;;5080551;28;19909;-67
2022/03/07 04:43:53;;;;;;;;;;;-1.20;66.20;;;;;;5082090;28;19908;-67
2022/03/07 04:46:18;;;;;;;;;;;-1.30;66.50;;;;;;5082147;28;19931;-67
2022/03/07 04:48:44;;;;;;;;;;;-1.20;66.60;;;;;;5081918;28;19908;-67
2022/03/07 04:51:10;;;;;;;;;;;-1.30;66.90;;;;;;5082323;28;20049;-67
2022/03/07 04:53:36;;;;;;;;;;;-1.30;67.00;;;;;;5082679;28;19983;-67
2022/03/07 04:56:02;;;;;;;;;;;-1.30;67.20;;;;;;5082558;28;19976;-67
2022/03/07 04:58:27;;;;;;;;;;;-1.30;67.10;;;;;;5082527;28;19909;-68
2022/03/07 05:00:54;;;;;;;;;;;-1.30;67.50;;;;;;5082610;28;19979;-67
2022/03/07 05:03:22;;;;;;;;;;;-1.30;67.30;;;;;;5082625;28;19916;-67
2022/03/07 05:05:48;;;;;;;;;;;-1.40;67.50;;;;;;5082411;28;19908;-67
2022/03/07 05:08:14;;;;;;;;;;;-1.40;68.10;;;;;;5082633;28;19920;-67
2022/03/07 05:10:40;;;;;;;;;;;-1.50;68.20;;;;;;5082460;28;20207;-67
2022/03/07 05:13:06;;;;;;;;;;;-1.50;68.60;;;;;;5081582;28;19920;-67
2022/03/07 05:15:32;;;;;;;;;;;-1.60;69.30;;;;;;5082694;28;20249;-67
2022/03/07 05:17:58;;;;;;;;;;;-1.60;69.60;;;;;;5082808;28;19908;-67
2022/03/07 05:20:24;;;;;;;;;;;-1.60;69.70;;;;;;5082503;28;19916;-67
2022/03/07 05:22:49;;;;;;;;;;;-1.60;69.80;;;;;;5082159;28;19908;-67
2022/03/07 05:25:16;;;;;;;;;;;-1.70;70.00;;;;;;5082575;28;19916;-67
2022/03/07 05:27:42;;;;;;;;;;;-1.70;70.10;;;;;;5081180;28;19909;-67
2022/03/07 05:30:09;;;;;;;;;;;-1.70;70.70;;;;;;5081384;28;20172;-67
2022/03/07 05:32:35;;;;;;;;;;;-1.70;70.90;;;;;;5082257;28;19912;-67
2022/03/07 05:35:01;;;;;;;;;;;-1.70;71.10;;;;;;5082400;28;19912;-67
2022/03/07 05:37:26;;;;;;;;;;;-1.70;71.50;;;;;;5082408;28;20199;-67
2022/03/07 05:39:52;;;;;;;;;;;-1.80;72.40;;;;;;5082442;28;19979;-67
2022/03/07 05:42:18;;;;;;;;;;;-1.80;72.50;;;;;;5081680;28;20146;-67
2022/03/07 05:44:44;;;;;;;;;;;-1.80;73.20;;;;;;5082264;28;19909;-68
2022/03/07 05:47:09;;;;;;;;;;;-1.90;73.20;;;;;;5082128;28;19912;-67
2022/03/07 05:49:35;;;;;;;;;;;-1.80;72.60;;;;;;5081124;28;19909;-68
2022/03/07 05:52:01;;;;;;;;;;;-1.90;72.30;;;;;;5083234;28;20211;-68
2022/03/07 05:54:27;;;;;;;;;;;-1.90;72.40;;;;;;5082062;28;19984;-68
2022/03/07 05:56:52;;;;;;;;;;;-1.90;72.40;;;;;;5080748;28;20203;-68
2022/03/07 05:59:18;;;;;;;;;;;-1.90;72.50;;;;;;5081974;28;19912;-68
2022/03/07 06:01:44;;;;;;;;;;;-1.90;72.50;;;;;;5084152;28;20111;-68
2022/03/07 06:04:10;;;;;;;;;;;-2.00;72.40;;;;;;5085418;28;20175;-68
2022/03/07 06:06:35;;;;;;;;;;;-1.90;72.40;;;;;;5085588;28;19908;-68
2022/03/07 06:09:01;;;;;;;;;;;-1.90;72.40;;;;;;5085512;28;19931;-68
2022/03/07 06:11:27;;;;;;;;;;;-1.90;72.50;;;;;;5082793;28;20158;-68
2022/03/07 06:13:52;;;;;;;;;;;-1.80;72.20;;;;;;5084878;28;19914;-68
2022/03/07 06:16:18;;;;;;;;;;;-1.90;72.90;;;;;;5085317;28;20081;-68
2022/03/07 06:18:44;;;;;;;;;;;-1.80;73.50;;;;;;5084424;28;19944;-68
2022/03/07 06:21:09;;;;;;;;;;;-1.70;73.40;;;;;;5084345;28;20150;-69
2022/03/07 06:23:36;;;;;;;;;;;-1.70;74.20;;;;;;5084604;28;19912;-68
2022/03/07 06:26:04;;;;;;;;;;;-1.70;73.80;;;;;;5084820;28;20200;-69
2022/03/07 06:28:30;;;;;;;;;;;-1.70;74.00;;;;;;5084483;28;19971;-70
2022/03/07 06:30:55;;;;;;;;;;;-1.70;73.20;;;;;;5083729;28;19951;-70
2022/03/07 06:33:21;;;;;;;;;;;-1.60;72.70;;;;;;5087322;28;19916;-70
2022/03/07 06:35:47;;;;;;;;;;;-1.60;72.70;;;;;;5087168;28;20027;-70
2022/03/07 06:38:12;;;;;;;;;;;-1.50;72.60;;;;;;5084994;28;19908;-71
2022/03/07 06:40:38;;;;;;;;;;;-1.50;70.90;;;;;;5080270;28;19915;-71
2022/03/07 06:43:04;;;;;;;;;;;-1.50;71.50;;;;;;5084511;28;20103;-72
2022/03/07 06:45:30;;;;;;;;;;;-1.40;71.70;;;;;;5084852;28;19909;-71
2022/03/07 06:47:56;;;;;;;;;;;-1.30;71.10;;;;;;5083613;28;20223;-71
2022/03/07 06:50:21;;;;;;;;;;;-1.30;70.50;;;;;;5083708;28;19908;-71
2022/03/07 06:52:47;;;;;;;;;;;-1.20;70.70;;;;;;5084403;28;20211;-72
2022/03/07 06:55:13;;;;;;;;;;;-1.10;70.30;;;;;;5084753;28;20222;-71
2022/03/07 06:57:39;;;;;;;;;;;-1.10;69.70;;;;;;5083524;28;19955;-71
2022/03/07 07:00:08;;;;;;;;;;;-1.10;69.00;;;;;;5100382;28;19908;-71
2022/03/07 07:02:34;;;;;;;;;;;-1.10;68.30;;;;;;5083140;28;19917;-71
2022/03/07 07:05:02;;;;;;;;;;;-1.10;68.60;;;;;;5083445;28;19948;-72
2022/03/07 07:07:29;;;;;;;;;;;-1.00;66.30;;;;;;5083323;28;20199;-71
2022/03/07 07:09:54;;;;;;;;;;;-1.00;65.50;;;;;;5092991;28;19916;-71
2022/03/07 07:12:20;;;;;;;;;;;-1.00;65.40;;;;;;5092993;28;19913;-72
2022/03/07 07:14:46;;;;;;;;;;;-0.90;66.60;;;;;;5084275;28;19912;-71
2022/03/07 07:17:11;;;;;;;;;;;-0.90;67.00;;;;;;5084534;28;19916;-71
2022/03/07 07:19:37;;;;;;;;;;;-0.90;66.70;;;;;;5066501;28;19912;-72
2022/03/07 07:22:03;;;;;;;;;;;-0.80;65.50;;;;;;5082875;28;19912;-72
2022/03/07 07:24:29;;;;;;;;;;;-0.70;65.20;;;;;;5083657;22;19921;-69
2022/03/07 07:26:55;;;;;;;;;;;-0.80;65.70;;;;;;5062652;28;20258;-69
2022/03/07 07:29:20;;;;;;;;;;;-0.80;66.30;;;;;;5062835;28;19936;-69
2022/03/07 07:31:47;;;;;;;;;;;-0.80;66.70;;;;;;5063566;28;19955;-69
2022/03/07 07:34:13;;;;;;;;;;;-0.70;65.90;;;;;;5063613;28;19968;-69
2022/03/07 07:36:39;;;;;;;;;;;-0.60;65.20;;;;;;5046309;28;20141;-70
2022/03/07 07:39:05;;;;;;;;;;;-0.50;64.90;;;;;;5045721;28;19916;-70
2022/03/07 07:41:31;;;;;;;;;;;-0.50;64.10;;;;;;5063358;28;19916;-69
2022/03/07 07:43:56;;;;;;;;;;;-0.50;64.60;;;;;;5063537;28;19908;-69
2022/03/07 07:46:22;;;;;;;;;;;-0.40;63.60;;;;;;5063560;28;20155;-69
2022/03/07 07:48:48;;;;;;;;;;;-0.40;62.20;;;;;;5063526;28;19909;-69
2022/03/07 07:51:13;;;;;;;;;;;-0.40;62.30;;;;;;5028948;28;19915;-69
2022/03/07 07:53:39;;;;;;;;;;;-0.30;62.30;;;;;;5040452;28;19921;-70
2022/03/07 07:56:05;;;;;;;;;;;-0.30;62.90;;;;;;5025803;28;20204;-69
2022/03/07 07:58:30;;;;;;;;;;;-0.10;60.90;;;;;;5025551;28;19909;-69
2022/03/07 08:00:56;;;;;;;;;;;-0.10;59.50;;;;;;5042014;28;20143;-69
2022/03/07 08:03:22;;;;;;;;;;;-0.10;58.40;;;;;;5043257;28;19916;-69
2022/03/07 08:05:48;;;;;;;;;;;-0.10;58.60;;;;;;4992967;28;19980;-69
2022/03/07 08:08:15;;;;;;;;;;;0.00;58.70;;;;;;5043044;28;19909;-69
2022/03/07 08:10:41;;;;;;;;;;;0.00;58.60;;;;;;5025406;28;20220;-69
2022/03/07 08:13:06;;;;;;;;;;;-0.10;58.30;;;;;;5025502;28;19913;-69
2022/03/07 08:15:32;;;;;;;;;;;-0.10;57.90;;;;;;5025495;28;20144;-68
2022/03/07 08:17:58;;;;;;;;;;;-0.20;58.10;;;;;;5043058;28;19916;-68
2022/03/07 08:20:24;;;;;;;;;;;-0.30;57.70;;;;;;5042886;28;19909;-69
2022/03/07 08:22:50;;;;;;;;;;;-0.20;57.90;;;;;;5024638;28;20322;-68
2022/03/07 08:25:15;;;;;;;;;;;-0.20;57.30;;;;;;5060749;28;19916;-69
2022/03/07 08:27:41;;;;;;;;;;;-0.20;57.30;;;;;;5045193;28;20184;-68
2022/03/07 08:30:09;;;;;;;;;;;-0.10;56.80;;;;;;5062970;28;19908;-68
2022/03/07 08:32:35;;;;;;;;;;;-0.10;56.00;;;;;;5044659;28;19917;-68
2022/03/07 08:35:01;;;;;;;;;;;0.00;55.70;;;;;;5045080;28;19963;-68
2022/03/07 08:37:27;;;;;;;;;;;0.10;54.70;;;;;;5045016;28;19908;-68
2022/03/07 08:39:53;;;;;;;;;;;0.10;54.30;;;;;;5062512;28;19909;-68
2022/03/07 08:42:19;;;;;;;;;;;0.10;54.90;;;;;;5062460;28;19913;-68
2022/03/07 08:44:45;;;;;;;;;;;0.30;54.90;;;;;;5045092;28;19909;-68
2022/03/07 08:47:11;;;;;;;;;;;0.30;54.00;;;;;;5062686;28;19999;-69
2022/03/07 08:49:38;;;;;;;;;;;0.30;54.40;;;;;;5045098;28;20230;-68
2022/03/07 08:52:03;;;;;;;;;;;0.40;54.10;;;;;;5028087;28;19980;-68
2022/03/07 08:54:29;;;;;;;;;;;0.50;55.00;;;;;;5044599;28;19916;-69
2022/03/07 08:56:55;;;;;;;;;;;0.60;54.40;;;;;;5062747;28;19976;-69
2022/03/07 08:59:21;;;;;;;;;;;0.70;53.20;;;;;;5044764;28;19915;-69
2022/03/07 09:01:47;;;;;;;;;;;0.70;54.30;;;;;;5062205;28;19954;-69
2022/03/07 09:04:12;;;;;;;;;;;0.90;53.80;;;;;;5036995;28;19916;-69
2022/03/07 09:06:38;;;;;;;;;;;1.00;53.00;;;;;;5025048;28;20132;-69
2022/03/07 09:09:04;;;;;;;;;;;1.10;52.40;;;;;;5024452;28;19916;-68
2022/03/07 09:11:29;;;;;;;;;;;1.20;52.70;;;;;;5042429;28;19924;-69
2022/03/07 09:13:55;;;;;;;;;;;1.20;52.90;;;;;;5054228;28;19913;-69
2022/03/07 09:16:21;;;;;;;;;;;1.30;52.00;;;;;;5044969;28;20183;-69
2022/03/07 09:18:47;;;;;;;;;;;1.30;53.00;;;;;;5028415;28;19917;-69
2022/03/07 09:21:13;;;;;;;;;;;1.30;53.10;;;;;;5044482;28;19916;-68
2022/03/07 09:23:39;;;;;;;;;;;1.30;53.00;;;;;;5062410;28;19948;-69
2022/03/07 09:26:09;;;;;;;;;;;1.20;52.70;;;;;;5044614;28;19925;-68
2022/03/07 09:28:35;;;;;;;;;;;1.20;53.00;;;;;;5062128;28;20103;-68
2022/03/07 09:31:01;;;;;;;;;;;1.20;52.30;;;;;;5044279;28;20096;-68
2022/03/07 09:33:28;;;;;;;;;;;1.00;52.60;;;;;;5045498;28;19912;-69
2022/03/07 09:35:53;;;;;;;;;;;1.00;53.70;;;;;;5048600;28;19939;-69
2022/03/07 09:38:19;;;;;;;;;;;1.00;54.10;;;;;;5065999;28;19909;-67
2022/03/07 09:40:45;;;;;;;;;;;1.20;57.20;;;;;;5065690;28;19924;-69
2022/03/07 09:43:11;;;;;;;;;;;1.60;67.90;;;;;;5047929;28;19947;-69
2022/03/07 09:45:37;;;;;;;;;;;2.50;62.10;;;;;;5031727;28;19995;-68
2022/03/07 09:48:03;;;;;;;;;;;2.20;49.20;;;;;;5065834;28;19908;-66
2022/03/07 09:50:28;;;;;;;;;;;2.10;50.10;;;;;;5031582;28;20120;-67
2022/03/07 09:52:55;;;;;;;;;;;2.00;50.30;;;;;;5065321;28;19919;-68
2022/03/07 09:55:20;;;;;;;;;;;2.10;50.90;;;;;;5048054;28;19916;-67
2022/03/07 09:57:46;;;;;;;;;;;2.00;49.20;;;;;;5065349;28;19909;-66
2022/03/07 10:00:12;;;;;;;;;;;1.90;49.20;;;;;;5030791;28;20093;-67
2022/03/07 10:02:38;;;;;;;;;;;1.80;49.40;;;;;;5064855;28;20218;-67
2022/03/07 10:05:04;;;;;;;;;;;2.00;49.30;;;;;;5065055;28;19916;-67
2022/03/07 10:07:30;;;;;;;;;;;2.00;48.50;;;;;;5047235;28;19962;-67
2022/03/07 10:10:07;;;;;;;;;;;2.10;48.80;;;;;;5064932;28;20480;-67
2022/03/07 10:12:32;;;;;;;;;;;2.20;48.80;;;;;;5029553;28;19928;-67
2022/03/07 10:14:58;;;;;;;;;;;2.30;47.80;;;;;;5057316;28;19909;-67
2022/03/07 10:17:26;;;;;;;;;;;2.20;47.90;;;;;;5010886;28;19909;-67
2022/03/07 10:19:55;;;;;;;;;;;2.20;47.50;;;;;;5027298;28;19932;-67
2022/03/07 10:22:23;;;;;;;;;;;2.40;48.40;;;;;;5026925;28;19948;-68
2022/03/07 10:25:05;;;;;;;;;;;2.70;48.50;;;;;;5027114;28;19920;-67
2022/03/07 10:27:33;;;;;;;;;;;3.00;48.80;;;;;;5044554;28;19909;-67
2022/03/07 10:29:59;;;;;;;;;;;3.20;47.00;;;;;;5026698;28;19951;-68
2022/03/07 10:32:25;;;;;;;;;;;3.40;47.10;;;;;;5026672;28;19920;-67
2022/03/07 10:34:51;;;;;;;;;;;3.50;46.10;;;;;;5044360;28;19909;-68
2022/03/07 10:37:16;;;;;;;;;;;3.70;46.30;;;;;;5010569;28;19909;-67
2022/03/07 10:39:47;;;;;;;;;;;3.50;43.60;;;;;;5010282;28;19940;-66
2022/03/07 10:42:16;;;;;;;;;;;3.50;44.00;;;;;;5044196;28;19924;-67
2022/03/07 10:44:42;;;;;;;;;;;3.40;43.60;;;;;;5044441;28;19996;-67
2022/03/07 10:47:09;;;;;;;;;;;3.20;43.30;;;;;;5063522;28;19917;-67
2022/03/07 10:49:35;;;;;;;;;;;3.20;44.80;;;;;;5030130;28;19919;-67
2022/03/07 10:52:04;;;;;;;;;;;3.20;43.60;;;;;;5046347;28;19909;-68
2022/03/07 10:54:35;;;;;;;;;;;3.00;43.70;;;;;;5064077;28;19913;-68
2022/03/07 10:57:02;;;;;;;;;;;2.90;44.40;;;;;;5046504;28;19945;-66
2022/03/07 10:59:40;;;;;;;;;;;3.30;44.20;;;;;;5046076;28;19908;-68
2022/03/07 11:02:09;;;;;;;;;;;3.40;43.40;;;;;;5046107;28;19913;-68
2022/03/07 11:04:37;;;;;;;;;;;3.40;43.80;;;;;;5030183;28;20166;-68
2022/03/07 11:07:03;;;;;;;;;;;3.60;44.00;;;;;;5046332;28;19917;-68
2022/03/07 11:09:29;;;;;;;;;;;3.90;43.20;;;;;;5063947;28;19951;-68
2022/03/07 11:11:54;;;;;;;;;;;4.10;42.50;;;;;;5063474;28;19909;-68
2022/03/07 11:14:20;;;;;;;;;;;4.20;42.70;;;;;;5044817;28;20146;-68
2022/03/07 11:16:47;;;;;;;;;;;4.50;42.30;;;;;;5046087;28;19912;-68
2022/03/07 11:19:13;;;;;;;;;;;4.60;41.20;;;;;;5045926;28;20202;-68
2022/03/07 11:21:42;;;;;;;;;;;4.70;41.40;;;;;;5063316;28;19909;-68
2022/03/07 11:24:07;;;;;;;;;;;5.30;41.00;;;;;;5045595;28;19920;-66
2022/03/07 11:26:33;;;;;;;;;;;5.70;40.60;;;;;;5063504;28;19912;-68
2022/03/07 11:28:59;;;;;;;;;;;6.20;38.50;;;;;;5045617;28;20018;-68
2022/03/07 11:31:32;;;;;;;;;;;6.60;37.90;;;;;;5046110;28;19916;-68
2022/03/07 11:33:58;;;;;;;;;;;6.80;37.50;;;;;;5063492;28;20118;-68
2022/03/07 11:36:25;;;;;;;;;;;8.00;36.20;;;;;;5045589;28;19909;-67
2022/03/07 11:39:09;;;;;;;;;;;9.40;33.50;;;;;;5063277;28;19913;-68
2022/03/07 11:41:39;;;;;;;;;;;10.30;32.30;;;;;;5063113;28;19936;-67
2022/03/07 11:44:10;;;;;;;;;;;12.00;30.40;;;;;;5045109;28;19909;-68
2022/03/07 11:46:39;;;;;;;;;;;12.40;28.80;;;;;;5063331;28;20116;-67
2022/03/07 11:49:22;;;;;;;;;;;13.50;28.00;;;;;;5063347;28;19909;-67
2022/03/07 11:51:58;;;;;;;;;;;14.50;27.90;;;;;;5063002;28;20145;-66
2022/03/07 11:54:24;;;;;;;;;;;14.30;27.40;;;;;;5045822;28;19951;-67
2022/03/07 11:56:50;;;;;;;;;;;15.20;27.10;;;;;;5062611;28;19976;-67
2022/03/07 11:59:16;;;;;;;;;;;16.90;25.40;;;;;;5062264;28;20192;-68
2022/03/07 12:01:51;;;;;;;;;;;17.70;24.10;;;;;;5062548;28;19909;-67
2022/03/07 12:04:18;;;;;;;;;;;17.60;24.30;;;;;;5062815;28;19924;-67
2022/03/07 12:06:53;;;;;;;;;;;18.30;24.80;;;;;;5062615;28;19909;-67
2022/03/07 12:09:26;;;;;;;;;;;19.40;23.80;;;;;;5062634;28;19989;-68
2022/03/07 12:12:00;;;;;;;;;;;20.20;22.90;;;;;;5044978;28;19944;-67
2022/03/07 12:14:28;;;;;;;;;;;19.10;23.00;;;;;;5043295;28;19913;-67
2022/03/07 12:16:54;;;;;;;;;;;19.60;23.20;;;;;;5062646;28;20097;-67
2022/03/07 12:19:19;;;;;;;;;;;19.40;23.30;;;;;;5062604;28;19930;-67
2022/03/07 12:21:47;;;;;;;;;;;19.50;22.90;;;;;;5062376;28;19912;-67
2022/03/07 12:24:14;;;;;;;;;;;20.20;22.50;;;;;;5062344;28;19920;-67
2022/03/07 12:26:53;;;;;;;;;;;20.00;22.60;;;;;;5062385;28;19908;-68
2022/03/07 12:29:20;;;;;;;;;;;20.40;22.70;;;;;;5062131;28;20218;-68
2022/03/07 12:31:59;;;;;;;;;;;20.80;22.40;;;;;;5062193;28;19908;-68
2022/03/07 12:34:26;;;;;;;;;;;22.00;22.20;;;;;;5062289;28;20418;-67
2022/03/07 12:37:01;;;;;;;;;;;22.40;21.20;;;;;;5062390;28;19948;-68
2022/03/07 12:39:27;;;;;;;;;;;22.20;21.50;;;;;;5061957;28;19976;-68
2022/03/07 12:41:58;;;;;;;;;;;22.40;21.60;;;;;;5062071;28;19908;-68
2022/03/07 12:44:24;;;;;;;;;;;22.80;21.00;;;;;;5062066;28;20242;-67
2022/03/07 12:46:50;;;;;;;;;;;23.60;20.20;;;;;;5062332;28;19916;-68
2022/03/07 12:49:16;;;;;;;;;;;23.30;20.50;;;;;;5062474;28;20104;-68
2022/03/07 12:51:42;;;;;;;;;;;22.90;21.00;;;;;;5062044;28;19909;-68
2022/03/07 12:54:07;;;;;;;;;;;23.90;20.50;;;;;;5062099;28;19927;-68
2022/03/07 12:56:37;;;;;;;;;;;24.30;20.40;;;;;;5062275;28;19971;-67
2022/03/07 12:59:03;;;;;;;;;;;25.50;19.80;;;;;;5062029;28;20123;-68
2022/03/07 13:01:29;;;;;;;;;;;24.80;19.90;;;;;;5044100;28;20167;-68
2022/03/07 13:03:55;;;;;;;;;;;25.30;20.00;;;;;;5044494;28;19916;-68
2022/03/07 13:06:22;;;;;;;;;;;26.20;19.50;;;;;;5062113;28;19915;-68
2022/03/07 13:08:49;;;;;;;;;;;26.30;19.10;;;;;;5062933;28;19992;-67
2022/03/07 13:11:15;;;;;;;;;;;25.70;19.60;;;;;;5065878;28;19909;-68
2022/03/07 13:13:45;;;;;;;;;;;26.30;19.70;;;;;;5064667;28;19920;-68
2022/03/07 13:16:22;;;;;;;;;;;25.90;19.60;;;;;;5066030;28;19988;-68
2022/03/07 13:18:56;;;;;;;;;;;26.30;19.40;;;;;;5033079;28;19917;-68
2022/03/07 13:21:22;;;;;;;;;;;26.90;19.10;;;;;;5065932;28;19908;-67
2022/03/07 13:23:48;;;;;;;;;;;26.60;19.20;;;;;;5065963;28;20235;-65
2022/03/07 13:26:17;;;;;;;;;;;26.60;18.90;;;;;;5065947;28;19909;-67
2022/03/07 13:28:43;;;;;;;;;;;25.90;19.20;;;;;;5065849;28;19936;-67
2022/03/07 13:31:09;;;;;;;;;;;25.70;19.40;;;;;;5031459;28;19909;-67
2022/03/07 13:33:34;;;;;;;;;;;25.70;19.40;;;;;;5048178;28;19956;-68
2022/03/07 13:36:09;;;;;;;;;;;24.90;19.40;;;;;;5065898;28;19909;-68
2022/03/07 13:38:36;;;;;;;;;;;24.30;19.80;;;;;;5065657;28;19915;-67
2022/03/07 13:41:08;;;;;;;;;;;24.60;19.70;;;;;;5065610;28;19916;-68
2022/03/07 13:43:35;;;;;;;;;;;24.20;19.90;;;;;;5047846;28;19908;-68
2022/03/07 13:46:01;;;;;;;;;;;24.40;19.80;;;;;;5065727;28;19909;-70
2022/03/07 13:48:26;;;;;;;;;;;25.10;19.20;;;;;;5048005;28;20290;-67
2022/03/07 13:50:52;;;;;;;;;;;25.40;19.40;;;;;;5065392;28;19917;-68
2022/03/07 13:53:20;;;;;;;;;;;25.50;19.20;;;;;;5065407;28;19913;-68
2022/03/07 13:55:50;;;;;;;;;;;25.10;19.50;;;;;;5065430;28;19916;-68
2022/03/07 13:58:23;;;;;;;;;;;25.10;19.20;;;;;;5065028;28;20203;-67
2022/03/07 14:01:22;;;;;;;;;;;25.10;19.40;;;;;;5065192;28;19908;-67
2022/03/07 14:03:48;;;;;;;;;;;24.30;19.40;;;;;;4976071;28;19922;-68
2022/03/07 14:06:17;;;;;;;;;;;24.90;19.50;;;;;;5008194;28;19909;-67
2022/03/07 14:08:45;;;;;;;;;;;24.40;19.50;;;;;;5008226;28;19910;-67
2022/03/07 14:11:13;;;;;;;;;;;23.80;20.00;;;;;;5024797;28;19937;-67
2022/03/07 14:13:48;;;;;;;;;;;23.80;20.10;;;;;;5032322;28;19920;-68
2022/03/07 14:16:15;;;;;;;;;;;22.40;20.60;;;;;;5045112;28;20204;-67
2022/03/07 14:18:41;;;;;;;;;;;23.00;20.60;;;;;;5045086;28;20112;-67